Time;durP1;ratioP1;P1;durP2;ratioP2;P2;SDS_P1;SDS_P2;PMS_P1;PMS_P2;Temp;Humidity;BMP_temperature;BMP_pressure;BME280_temperature;BME280_humidity;BME280_pressure;Samples;Min_cycle;Max_cycle;Signal;HPM_P1;HPM_P2
2022/08/21 00:01:09;;;;;;;;;;;;;;;20.51;56.07;100469.44;4410249;32;20490;-69
2022/08/21 00:03:35;;;;;;;;;;;;;;;20.55;55.84;100469.97;4428646;32;20167;-69
2022/08/21 00:06:01;;;;;;;;;;;;;;;20.59;55.98;100476.22;4426358;32;20420;-67
2022/08/21 00:08:26;;;;;;;;;;;;;;;20.55;56.05;100477.75;4425661;32;19997;-67
2022/08/21 00:10:51;;;;;;;;;;;;;;;20.53;56.24;100475.44;4426591;32;20012;-68
2022/08/21 00:13:19;;;;;;;;;;;;;;;20.36;56.61;100479.50;4427251;32;19941;-69
2022/08/21 00:15:45;;;;;;;;;;;;;;;20.44;56.61;100478.50;4428154;32;19961;-68
2022/08/21 00:18:11;;;;;;;;;;;;;;;20.55;56.35;100478.53;4426424;32;20722;-68
2022/08/21 00:20:37;;;;;;;;;;;;;;;20.42;56.54;100481.09;4428225;32;19954;-65
2022/08/21 00:23:03;;;;;;;;;;;;;;;20.41;56.37;100475.88;4428839;32;19954;-67
2022/08/21 00:25:29;;;;;;;;;;;;;;;20.38;56.78;100482.62;4424540;32;20369;-67
2022/08/21 00:27:55;;;;;;;;;;;;;;;19.96;57.99;100486.25;4425258;32;19976;-68
2022/08/21 00:30:22;;;;;;;;;;;;;;;20.03;57.95;100477.19;4424924;32;20385;-65
2022/08/21 00:32:48;;;;;;;;;;;;;;;20.00;58.04;100474.59;4426300;32;20013;-65
2022/08/21 00:35:15;;;;;;;;;;;;;;;19.95;58.31;100481.06;4427918;32;19992;-66
2022/08/21 00:37:41;;;;;;;;;;;;;;;19.83;58.52;100463.81;4429392;32;20282;-69
2022/08/21 00:40:08;;;;;;;;;;;;;;;19.90;58.34;100461.78;4428731;32;19946;-66
2022/08/21 00:42:36;;;;;;;;;;;;;;;19.81;58.67;100457.06;4429968;32;20484;-68
2022/08/21 00:45:03;;;;;;;;;;;;;;;19.93;58.35;100455.06;4414980;32;19993;-68
2022/08/21 00:47:28;;;;;;;;;;;;;;;19.78;58.68;100460.94;4431911;32;20017;-67
2022/08/21 00:49:54;;;;;;;;;;;;;;;19.76;58.89;100457.84;4430338;32;20262;-66
2022/08/21 00:52:24;;;;;;;;;;;;;;;19.66;58.92;100456.44;4431343;32;19972;-67
2022/08/21 00:54:50;;;;;;;;;;;;;;;19.86;58.70;100464.13;4429909;32;19953;-66
2022/08/21 00:57:19;;;;;;;;;;;;;;;19.90;58.40;100468.28;4428291;32;20426;-68
2022/08/21 00:59:47;;;;;;;;;;;;;;;19.91;58.36;100457.66;4428696;32;20342;-67
2022/08/21 01:02:13;;;;;;;;;;;;;;;19.95;58.19;100458.19;4431342;32;20022;-67
2022/08/21 01:04:39;;;;;;;;;;;;;;;19.92;58.26;100464.94;4430058;32;19961;-67
2022/08/21 01:07:04;;;;;;;;;;;;;;;19.78;58.55;100460.94;4429861;32;20526;-66
2022/08/21 01:09:30;;;;;;;;;;;;;;;19.70;58.65;100454.16;4428208;32;19971;-65
2022/08/21 01:11:55;;;;;;;;;;;;;;;19.66;58.61;100450.72;4431181;32;19993;-66
2022/08/21 01:14:21;;;;;;;;;;;;;;;19.66;59.00;100456.44;4430926;32;20004;-65
2022/08/21 01:16:49;;;;;;;;;;;;;;;19.63;59.02;100449.69;4429696;32;19965;-67
2022/08/21 01:19:16;;;;;;;;;;;;;;;19.66;58.91;100454.37;4427837;32;20005;-68
2022/08/21 01:21:42;;;;;;;;;;;;;;;19.68;58.96;100466.09;4429970;32;20388;-66
2022/08/21 01:24:08;;;;;;;;;;;;;;;19.68;58.83;100462.44;4430562;32;20288;-69
2022/08/21 01:26:35;;;;;;;;;;;;;;;19.66;59.11;100457.22;4428173;32;19958;-65
2022/08/21 01:31:37;;;;;;;;;;;;;;;20.16;58.26;100459.66;3957456;32;15721609;-70
2022/08/21 01:34:02;;;;;;;;;;;;;;;20.16;58.26;100459.66;4431950;32;19954;-66
2022/08/21 01:36:28;;;;;;;;;;;;;;;19.67;59.07;100460.87;4433886;32;20422;-69
2022/08/21 01:38:54;;;;;;;;;;;;;;;19.61;59.36;100457.19;4430417;32;19968;-65
2022/08/21 01:41:19;;;;;;;;;;;;;;;19.62;59.25;100458.75;4429785;32;19985;-67
2022/08/21 01:43:45;;;;;;;;;;;;;;;19.68;59.06;100462.44;4434457;32;19977;-67
2022/08/21 01:46:11;;;;;;;;;;;;;;;19.74;59.01;100463.25;4435024;32;19990;-68
2022/08/21 01:48:37;;;;;;;;;;;;;;;19.72;59.15;100460.13;4432643;32;19950;-69
2022/08/21 01:51:03;;;;;;;;;;;;;;;19.73;59.05;100458.84;4433032;32;20005;-65
2022/08/21 01:53:29;;;;;;;;;;;;;;;19.48;59.93;100456.81;4433492;32;19961;-66
2022/08/21 01:55:54;;;;;;;;;;;;;;;19.60;59.57;100464.97;4430827;32;20299;-66
2022/08/21 01:58:20;;;;;;;;;;;;;;;19.50;60.08;100457.91;4431082;32;20001;-67
2022/08/21 02:00:45;;;;;;;;;;;;;;;19.46;60.21;100462.25;4433989;32;20004;-67
2022/08/21 02:03:11;;;;;;;;;;;;;;;19.42;60.41;100462.47;4432108;32;19997;-65
2022/08/21 02:05:37;;;;;;;;;;;;;;;19.20;60.85;100467.19;4430974;32;20618;-66
2022/08/21 02:08:05;;;;;;;;;;;;;;;19.23;60.75;100464.09;4436986;32;19991;-67
2022/08/21 02:10:31;;;;;;;;;;;;;;;19.25;60.95;100460.75;4433383;32;19985;-66
2022/08/21 02:12:58;;;;;;;;;;;;;;;19.31;60.74;100458.75;4433553;32;19986;-66
2022/08/21 02:15:24;;;;;;;;;;;;;;;19.31;60.68;100453.06;4432499;32;20322;-67
2022/08/21 02:17:51;;;;;;;;;;;;;;;19.31;60.60;100458.75;4433589;32;19976;-67
2022/08/21 02:20:22;;;;;;;;;;;;;;;19.18;61.05;100467.69;4432651;32;19968;-69
2022/08/21 02:22:49;;;;;;;;;;;;;;;19.09;61.34;100462.16;4432914;32;20311;-66
2022/08/21 02:25:15;;;;;;;;;;;;;;;19.04;61.52;100465.75;4430093;32;19971;-70
2022/08/21 02:27:41;;;;;;;;;;;;;;;19.10;61.40;100485.75;4432745;32;20441;-66
2022/08/21 02:30:12;;;;;;;;;;;;;;;19.12;61.40;100466.09;4432550;32;20030;-67
2022/08/21 02:32:37;;;;;;;;;;;;;;;19.06;61.34;100463.19;4434797;32;19985;-65
2022/08/21 02:35:03;;;;;;;;;;;;;;;19.25;60.94;100470.09;4432571;32;20290;-69
2022/08/21 02:37:29;;;;;;;;;;;;;;;19.18;60.97;100456.28;4433755;32;20501;-67
2022/08/21 02:39:54;;;;;;;;;;;;;;;19.10;61.42;100451.53;4431456;32;19973;-68
2022/08/21 02:42:20;;;;;;;;;;;;;;;19.01;61.83;100461.03;4426939;32;20005;-65
2022/08/21 02:44:45;;;;;;;;;;;;;;;18.88;62.20;100451.31;4421921;32;19995;-69
2022/08/21 02:47:11;;;;;;;;;;;;;;;18.88;62.19;100454.16;4424252;32;20084;-67
2022/08/21 02:49:36;;;;;;;;;;;;;;;18.72;62.59;100438.44;4419804;32;20019;-68
2022/08/21 02:52:02;;;;;;;;;;;;;;;18.75;62.55;100454.53;4422005;32;20559;-65
2022/08/21 02:54:27;;;;;;;;;;;;;;;18.86;62.21;100459.56;4419047;32;19953;-68
2022/08/21 02:56:52;;;;;;;;;;;;;;;18.82;62.44;100459.03;4407997;32;19987;-65
2022/08/21 02:59:18;;;;;;;;;;;;;;;18.86;62.32;100448.97;4420010;32;19992;-66
2022/08/21 03:01:44;;;;;;;;;;;;;;;19.00;61.76;100453.78;4418511;32;20447;-66
2022/08/21 03:04:10;;;;;;;;;;;;;;;19.08;61.71;100445.53;4419656;32;20096;-65
2022/08/21 03:06:36;;;;;;;;;;;;;;;19.15;61.17;100443.00;4420533;32;20005;-68
2022/08/21 03:09:02;;;;;;;;;;;;;;;19.15;61.37;100440.16;4420260;32;20011;-68
2022/08/21 03:11:28;;;;;;;;;;;;;;;19.28;60.90;100440.59;4420949;32;19969;-69
2022/08/21 03:13:54;;;;;;;;;;;;;;;19.30;61.00;100437.22;4423899;32;19973;-68
2022/08/21 03:16:20;;;;;;;;;;;;;;;19.27;61.00;100435.38;4420843;32;19967;-66
2022/08/21 03:18:46;;;;;;;;;;;;;;;19.32;60.68;100431.78;4419884;32;20402;-68
2022/08/21 03:21:12;;;;;;;;;;;;;;;19.11;61.58;100436.75;4422215;32;19986;-67
2022/08/21 03:23:39;;;;;;;;;;;;;;;19.03;61.94;100424.25;4420697;32;19965;-65
2022/08/21 03:26:06;;;;;;;;;;;;;;;19.06;61.93;100426.09;4420616;32;20034;-66
2022/08/21 03:28:32;;;;;;;;;;;;;;;18.84;62.74;100425.88;4419810;32;20004;-65
2022/08/21 03:30:57;;;;;;;;;;;;;;;18.86;62.71;100420.44;4422407;32;20021;-69
2022/08/21 03:33:23;;;;;;;;;;;;;;;18.83;63.04;100414.97;4421001;32;19963;-66
2022/08/21 03:35:55;;;;;;;;;;;;;;;18.85;62.97;100429.50;4422306;32;20594;-67
2022/08/21 03:38:20;;;;;;;;;;;;;;;18.92;62.58;100423.34;4420477;32;19993;-65
2022/08/21 03:40:46;;;;;;;;;;;;;;;19.04;62.47;100422.97;4422105;32;19995;-67
2022/08/21 03:43:11;;;;;;;;;;;;;;;19.15;62.12;100428.75;4420835;32;20384;-65
2022/08/21 03:45:38;;;;;;;;;;;;;;;19.35;61.54;100439.34;4422266;32;19997;-67
2022/08/21 03:48:05;;;;;;;;;;;;;;;19.40;61.33;100436.53;4420312;32;19957;-66
2022/08/21 03:50:32;;;;;;;;;;;;;;;19.39;61.31;100428.50;4404736;32;20046;-65
2022/08/21 03:52:58;;;;;;;;;;;;;;;19.44;61.33;100434.22;4418301;32;20042;-66
2022/08/21 03:55:24;;;;;;;;;;;;;;;19.44;61.33;100439.94;4422783;32;20369;-65
2022/08/21 03:57:50;;;;;;;;;;;;;;;19.50;61.07;100448.53;4424875;32;20667;-69
2022/08/21 04:00:16;;;;;;;;;;;;;;;19.60;61.35;100447.06;4418093;32;19976;-66
2022/08/21 04:02:43;;;;;;;;;;;;;;;19.62;62.39;100444.47;4422713;32;19994;-68
2022/08/21 04:05:09;;;;;;;;;;;;;;;19.37;63.33;100448.19;4421156;32;19995;-65
2022/08/21 04:07:35;;;;;;;;;;;;;;;19.15;64.18;100454.44;4422333;32;19981;-67
2022/08/21 04:10:01;;;;;;;;;;;;;;;19.09;64.83;100445.03;4420860;32;20023;-64
2022/08/21 04:12:26;;;;;;;;;;;;;;;19.11;65.03;100453.87;4420512;32;20492;-66
2022/08/21 04:14:52;;;;;;;;;;;;;;;19.06;65.41;100442.44;4419619;32;20034;-66
2022/08/21 04:17:18;;;;;;;;;;;;;;;18.94;65.31;100457.84;4420764;32;20619;-68
2022/08/21 04:19:44;;;;;;;;;;;;;;;18.91;65.68;100453.16;4418113;32;19949;-65
2022/08/21 04:22:09;;;;;;;;;;;;;;;18.88;65.77;100460.66;4419810;32;20071;-67
2022/08/21 04:24:35;;;;;;;;;;;;;;;18.85;65.84;100467.37;4421061;32;19969;-69
2022/08/21 04:27:00;;;;;;;;;;;;;;;18.90;65.73;100460.91;4419439;32;19985;-65
2022/08/21 04:29:26;;;;;;;;;;;;;;;18.85;66.07;100469.41;4419615;32;19990;-66
2022/08/21 04:31:52;;;;;;;;;;;;;;;18.93;65.86;100482.72;4419866;32;19999;-68
2022/08/21 04:34:17;;;;;;;;;;;;;;;19.02;65.69;100482.56;4423184;32;19968;-68
2022/08/21 04:36:43;;;;;;;;;;;;;;;18.96;67.16;100478.88;4423835;32;19957;-66
2022/08/21 04:39:09;;;;;;;;;;;;;;;18.90;68.21;100477.25;4426279;32;20030;-68
2022/08/21 04:41:35;;;;;;;;;;;;;;;18.88;68.79;100476.97;4422625;32;19961;-64
2022/08/21 04:44:01;;;;;;;;;;;;;;;18.84;69.29;100473.56;4426607;32;20045;-64
2022/08/21 04:46:26;;;;;;;;;;;;;;;18.89;69.43;100473.63;4423677;32;19953;-66
2022/08/21 04:48:52;;;;;;;;;;;;;;;18.92;69.64;100468.97;4423216;32;19953;-65
2022/08/21 04:51:21;;;;;;;;;;;;;;;18.90;70.31;100469.47;4422461;32;21001;-65
2022/08/21 04:56:31;;;;;;;;;;;;;;;19.17;69.39;100488.16;3962187;32;15744586;-66
2022/08/21 04:58:59;;;;;;;;;;;;;;;19.17;69.39;100488.16;4435021;32;19993;-68
2022/08/21 05:01:27;;;;;;;;;;;;;;;18.74;70.15;100486.38;4440076;32;20661;-65
2022/08/21 05:03:56;;;;;;;;;;;;;;;18.72;70.35;100491.81;4437205;32;20052;-64
2022/08/21 05:06:23;;;;;;;;;;;;;;;18.69;70.37;100493.63;4437313;32;19953;-65
2022/08/21 05:08:51;;;;;;;;;;;;;;;18.80;70.39;100498.66;4435065;32;19997;-68
2022/08/21 05:11:19;;;;;;;;;;;;;;;18.92;70.59;100508.91;4434734;32;20289;-65
2022/08/21 05:13:45;;;;;;;;;;;;;;;19.06;70.08;100508.03;4438923;32;20001;-66
2022/08/21 05:16:10;;;;;;;;;;;;;;;19.15;70.00;100519.28;4435840;32;20335;-64
2022/08/21 05:18:36;;;;;;;;;;;;;;;19.32;69.00;100508.81;4438408;32;20030;-66
2022/08/21 05:21:02;;;;;;;;;;;;;;;19.27;68.99;100504.63;4436486;32;19985;-65
2022/08/21 05:23:27;;;;;;;;;;;;;;;19.34;68.79;100506.25;4431863;32;19993;-65
2022/08/21 05:25:53;;;;;;;;;;;;;;;19.47;68.46;100509.50;4432616;32;19988;-68
2022/08/21 05:28:19;;;;;;;;;;;;;;;19.44;68.78;100513.34;4434690;32;19968;-67
2022/08/21 05:30:44;;;;;;;;;;;;;;;19.48;68.75;100513.91;4436675;32;20382;-65
2022/08/21 05:33:10;;;;;;;;;;;;;;;19.62;68.37;100519.50;4437346;32;20080;-66
2022/08/21 05:35:36;;;;;;;;;;;;;;;19.67;68.25;100523.69;4437802;32;20342;-66
2022/08/21 05:38:01;;;;;;;;;;;;;;;19.70;68.61;100532.00;4433349;32;20019;-68
2022/08/21 05:40:27;;;;;;;;;;;;;;;19.55;67.64;100530.59;4434919;32;20004;-65
2022/08/21 05:42:54;;;;;;;;;;;;;;;19.66;67.36;100533.53;4432617;32;20012;-65
2022/08/21 05:45:21;;;;;;;;;;;;;;;19.88;66.53;100530.84;4433202;32;19965;-67
2022/08/21 05:47:46;;;;;;;;;;;;;;;19.92;66.46;100539.97;4435566;32;19949;-68
2022/08/21 05:50:12;;;;;;;;;;;;;;;20.05;66.32;100543.19;4431029;32;19983;-68
2022/08/21 05:52:37;;;;;;;;;;;;;;;20.15;66.38;100555.25;4433145;32;19958;-65
2022/08/21 05:55:03;;;;;;;;;;;;;;;20.27;65.95;100551.16;4432217;32;20004;-65
2022/08/21 05:57:29;;;;;;;;;;;;;;;20.36;65.20;100551.75;4431809;32;20015;-68
2022/08/21 05:59:54;;;;;;;;;;;;;;;20.38;65.21;100563.44;4428885;32;19996;-67
2022/08/21 06:02:20;;;;;;;;;;;;;;;20.35;65.47;100561.63;4431819;32;19946;-66
2022/08/21 06:04:45;;;;;;;;;;;;;;;20.37;64.38;100559.00;4432653;32;19992;-69
2022/08/21 06:07:11;;;;;;;;;;;;;;;20.36;64.73;100563.16;4423927;32;19945;-66
2022/08/21 06:09:38;;;;;;;;;;;;;;;20.28;65.33;100573.50;4418717;32;20331;-69
2022/08/21 06:12:05;;;;;;;;;;;;;;;20.49;64.18;100557.78;4420147;32;20027;-66
2022/08/21 06:14:30;;;;;;;;;;;;;;;20.28;64.27;100561.31;4424364;32;20024;-68
2022/08/21 06:17:01;;;;;;;;;;;;;;;20.23;64.42;100564.91;4423248;32;20425;-66
2022/08/21 06:19:26;;;;;;;;;;;;;;;20.49;64.17;100571.31;4421926;32;20008;-66
2022/08/21 06:21:52;;;;;;;;;;;;;;;20.60;63.99;100557.84;4424012;32;19950;-67
2022/08/21 06:24:18;;;;;;;;;;;;;;;20.70;63.79;100567.78;4422144;32;20302;-69
2022/08/21 06:26:43;;;;;;;;;;;;;;;20.91;63.26;100569.16;4420220;32;19985;-66
2022/08/21 06:29:12;;;;;;;;;;;;;;;20.92;62.26;100581.38;4423684;32;20136;-67
2022/08/21 06:31:39;;;;;;;;;;;;;;;20.77;63.58;100575.09;4421055;32;19945;-69
2022/08/21 06:34:04;;;;;;;;;;;;;;;21.01;61.39;100572.59;4419339;32;19993;-65
2022/08/21 06:36:29;;;;;;;;;;;;;;;20.97;61.77;100575.72;4420212;32;20017;-70
2022/08/21 06:38:55;;;;;;;;;;;;;;;20.98;61.49;100579.34;4420203;32;20355;-66
2022/08/21 06:41:21;;;;;;;;;;;;;;;21.00;61.19;100579.63;4418927;32;19937;-67
2022/08/21 06:43:47;;;;;;;;;;;;;;;21.05;61.39;100573.91;4421138;32;20366;-68
2022/08/21 06:46:12;;;;;;;;;;;;;;;21.22;60.59;100574.78;4422446;32;19960;-66
2022/08/21 06:48:38;;;;;;;;;;;;;;;20.98;60.54;100574.44;4419587;32;19957;-68
2022/08/21 06:51:04;;;;;;;;;;;;;;;20.93;61.22;100578.00;4421419;32;19982;-68
2022/08/21 06:53:29;;;;;;;;;;;;;;;20.87;60.75;100577.22;4420433;32;20003;-69
2022/08/21 06:55:55;;;;;;;;;;;;;;;20.95;60.42;100572.59;4419166;32;20022;-68
2022/08/21 06:58:20;;;;;;;;;;;;;;;21.05;60.44;100576.03;4404353;32;19985;-68
2022/08/21 07:00:48;;;;;;;;;;;;;;;21.17;60.42;100577.62;4422692;32;19961;-68
2022/08/21 07:03:18;;;;;;;;;;;;;;;21.19;59.75;100572.94;4419438;32;19965;-68
2022/08/21 07:05:44;;;;;;;;;;;;;;;21.17;59.24;100578.38;4421249;32;20237;-66
2022/08/21 07:08:10;;;;;;;;;;;;;;;21.30;58.26;100570.09;4422637;32;19961;-66
2022/08/21 07:10:35;;;;;;;;;;;;;;;21.40;58.35;100565.72;4422523;32;19982;-65
2022/08/21 07:13:01;;;;;;;;;;;;;;;21.72;56.87;100569.13;4422779;32;19995;-65
2022/08/21 07:15:27;;;;;;;;;;;;;;;21.74;57.03;100572.28;4423230;32;19993;-66
2022/08/21 07:17:52;;;;;;;;;;;;;;;21.77;55.79;100579.03;4419066;32;19990;-67
2022/08/21 07:20:18;;;;;;;;;;;;;;;21.98;55.84;100586.09;4422474;32;20220;-67
2022/08/21 07:22:44;;;;;;;;;;;;;;;22.31;56.57;100595.47;4419471;32;19997;-66
2022/08/21 07:25:09;;;;;;;;;;;;;;;22.42;53.47;100595.44;4419662;32;20039;-65
2022/08/21 07:27:35;;;;;;;;;;;;;;;22.54;53.73;100596.22;4417353;32;20349;-67
2022/08/21 07:30:01;;;;;;;;;;;;;;;22.52;53.53;100593.09;4421571;32;19958;-67
2022/08/21 07:32:26;;;;;;;;;;;;;;;22.54;53.81;100584.75;4419836;32;20372;-66
2022/08/21 07:34:52;;;;;;;;;;;;;;;22.63;53.12;100584.47;4419201;32;20358;-68
2022/08/21 07:37:17;;;;;;;;;;;;;;;22.61;52.41;100581.34;4419009;32;20071;-65
2022/08/21 07:39:43;;;;;;;;;;;;;;;22.71;52.33;100596.97;4416926;32;19958;-66
2022/08/21 07:42:10;;;;;;;;;;;;;;;22.77;52.15;100597.72;4417208;32;19979;-67
2022/08/21 07:44:35;;;;;;;;;;;;;;;22.93;51.67;100611.25;4420978;32;20085;-65
2022/08/21 07:47:01;;;;;;;;;;;;;;;23.03;50.74;100607.53;4420603;32;19954;-68
2022/08/21 07:49:27;;;;;;;;;;;;;;;23.29;49.90;100610.06;4419152;32;20251;-68
2022/08/21 07:51:53;;;;;;;;;;;;;;;23.12;48.25;100601.50;4418294;32;19949;-67
2022/08/21 07:54:19;;;;;;;;;;;;;;;22.97;48.74;100600.25;4419915;32;20026;-66
2022/08/21 07:56:45;;;;;;;;;;;;;;;22.96;48.18;100601.56;4419270;32;20382;-69
2022/08/21 07:59:11;;;;;;;;;;;;;;;23.06;48.10;100608.56;4419978;32;20037;-66
2022/08/21 08:01:36;;;;;;;;;;;;;;;22.96;48.33;100605.22;4422430;32;20291;-66
2022/08/21 08:04:02;;;;;;;;;;;;;;;23.09;47.32;100610.37;4421393;32;20283;-66
2022/08/21 08:06:28;;;;;;;;;;;;;;;23.09;47.24;100616.13;4419117;32;20382;-65
2022/08/21 08:08:53;;;;;;;;;;;;;;;22.87;47.39;100616.22;4418558;32;19993;-65
2022/08/21 08:11:19;;;;;;;;;;;;;;;22.84;47.75;100620.94;4416371;32;19949;-65
2022/08/21 08:13:45;;;;;;;;;;;;;;;22.83;46.70;100621.44;4420104;32;19954;-67
2022/08/21 08:16:11;;;;;;;;;;;;;;;22.55;47.79;100612.12;4418414;32;20410;-67
2022/08/21 08:18:37;;;;;;;;;;;;;;;22.62;48.20;100603.78;4420496;32;20027;-66
2022/08/21 08:21:04;;;;;;;;;;;;;;;22.33;49.03;100609.28;4416898;32;19992;-66
2022/08/21 08:23:30;;;;;;;;;;;;;;;22.39;48.90;100604.28;4419423;32;20374;-68
2022/08/21 08:25:56;;;;;;;;;;;;;;;22.31;49.32;100604.06;4417734;32;19968;-69
2022/08/21 08:28:22;;;;;;;;;;;;;;;22.43;48.31;100599.84;4420574;32;19965;-66
2022/08/21 08:30:49;;;;;;;;;;;;;;;22.53;47.48;100597.53;4422432;32;19960;-65
2022/08/21 08:33:14;;;;;;;;;;;;;;;22.29;48.15;100600.13;4405494;32;20353;-65
2022/08/21 08:35:41;;;;;;;;;;;;;;;22.31;48.89;100600.41;4417145;32;20368;-67
2022/08/21 08:38:07;;;;;;;;;;;;;;;;;;4418293;32;19985;-65
2022/08/21 08:40:53;;;;;;;;;;;;;;;22.65;46.54;100608.47;4418453;32;20627;-65
2022/08/21 08:43:19;;;;;;;;;;;;;;;22.90;46.63;100603.69;4420609;32;20324;-66
2022/08/21 08:45:48;;;;;;;;;;;;;;;23.00;44.63;100614.34;4420501;32;19989;-68
2022/08/21 08:48:15;;;;;;;;;;;;;;;23.37;44.44;100608.19;4416394;32;19996;-66
2022/08/21 08:50:47;;;;;;;;;;;;;;;23.61;43.38;100627.63;4417852;32;19967;-65
2022/08/21 08:53:20;;;;;;;;;;;;;;;23.90;41.79;100621.19;4417373;32;19954;-68
2022/08/21 08:55:45;;;;;;;;;;;;;;;23.73;40.42;100624.16;4418417;32;20258;-66
2022/08/21 08:58:21;;;;;;;;;;;;;;;23.67;40.86;100620.56;4419085;32;20351;-65
2022/08/21 09:00:48;;;;;;;;;;;;;;;23.60;40.56;100626.87;4418086;32;20004;-66
2022/08/21 09:03:15;;;;;;;;;;;;;;;23.88;40.09;100618.06;4415192;32;20011;-66
2022/08/21 09:08:37;;;;;;;;;;;;;;;24.48;40.09;100626.19;3956694;32;15723385;-66
2022/08/21 09:11:10;;;;;;;;;;;;;;;24.48;40.09;100626.19;4439708;32;20014;-65
2022/08/21 09:18:54;;;;;;;;;;;;;;;25.34;36.85;100650.91;3971890;31;15716834;-68
2022/08/21 09:21:28;;;;;;;;;;;;;;;25.34;36.85;100650.91;4457541;32;19989;-66
2022/08/21 09:24:02;;;;;;;;;;;;;;;24.87;37.11;100652.50;4455334;32;19996;-66
2022/08/21 09:26:36;;;;;;;;;;;;;;;24.70;37.53;100645.38;4455599;32;19987;-65
2022/08/21 09:29:02;;;;;;;;;;;;;;;24.66;37.18;100656.38;4456558;32;19957;-68
2022/08/21 09:31:29;;;;;;;;;;;;;;;25.10;35.99;100659.53;4456460;32;19984;-67
2022/08/21 09:33:59;;;;;;;;;;;;;;;25.20;35.92;100665.72;4455931;32;19957;-67
2022/08/21 09:36:31;;;;;;;;;;;;;;;25.52;35.77;100655.13;4456770;32;20028;-67
2022/08/21 09:38:57;;;;;;;;;;;;;;;25.41;35.61;100657.37;4455860;32;20445;-69
2022/08/21 09:41:27;;;;;;;;;;;;;;;25.53;35.03;100653.03;4453946;32;19957;-67
2022/08/21 09:43:54;;;;;;;;;;;;;;;25.71;35.46;100650.13;4457312;32;20000;-70
2022/08/21 09:46:24;;;;;;;;;;;;;;;25.88;35.53;100659.31;4455991;32;20237;-70
2022/08/21 09:48:53;;;;;;;;;;;;;;;25.70;35.99;100665.09;4455592;32;20289;-70
2022/08/21 09:51:23;;;;;;;;;;;;;;;26.11;35.10;100654.03;4453204;32;20204;-67
2022/08/21 09:53:50;;;;;;;;;;;;;;;26.00;35.29;100665.72;4457029;32;20707;-66
2022/08/21 09:59:12;;;;;;;;;;;;;;;25.11;36.24;100664.00;4455786;32;20346;-67
2022/08/21 10:01:42;;;;;;;;;;;;;;;25.09;36.86;100652.25;4457012;32;19956;-67
2022/08/21 10:04:08;;;;;;;;;;;;;;;25.26;36.74;100649.94;4455414;32;20039;-67
2022/08/21 10:06:34;;;;;;;;;;;;;;;25.28;37.25;100647.28;4455457;32;19975;-66
2022/08/21 10:09:06;;;;;;;;;;;;;;;25.42;37.00;100651.06;4453764;32;20012;-66
2022/08/21 10:11:32;;;;;;;;;;;;;;;25.73;36.20;100653.25;4454581;32;19956;-65
2022/08/21 10:14:17;;;;;;;;;;;;;;;25.71;36.45;100658.00;4457323;32;19981;-67
2022/08/21 10:22:22;;;;;;;;;;;;;;;26.10;36.20;100661.09;3956294;32;15724371;-68
2022/08/21 10:25:08;;;;;;;;;;;;;;;26.10;36.20;100661.09;4432748;32;19987;-66
2022/08/21 10:27:39;;;;;;;;;;;;;;;25.58;36.85;100652.94;4435425;32;19968;-69
2022/08/21 10:30:24;;;;;;;;;;;;;;;25.72;36.91;100651.69;4434571;32;20201;-68
2022/08/21 10:33:10;;;;;;;;;;;;;;;26.06;36.01;100654.88;4436415;32;19961;-66
2022/08/21 10:35:39;;;;;;;;;;;;;;;26.54;35.17;100640.94;4437848;32;20276;-66
2022/08/21 10:40:54;;;;;;;;;;;;;;;27.76;33.54;100650.81;3954969;32;15721629;-68
2022/08/21 10:43:28;;;;;;;;;;;;;;;27.76;33.54;100650.81;4438224;32;19949;-68
2022/08/21 10:51:15;;;;;;;;;;;;;;;28.34;31.91;100647.59;3956010;32;15722457;-69
2022/08/21 10:53:45;;;;;;;;;;;;;;;27.91;32.64;100642.34;4441418;32;20045;-67
2022/08/21 10:56:16;;;;;;;;;;;;;;;27.42;33.56;100644.22;4441755;32;20654;-69
2022/08/21 10:58:49;;;;;;;;;;;;;;;27.43;33.25;100648.69;4439466;32;19953;-66
2022/08/21 11:01:34;;;;;;;;;;;;;;;27.75;33.01;100651.38;4440180;32;19973;-68
2022/08/21 11:04:20;;;;;;;;;;;;;;;28.00;32.65;100646.84;4439004;32;19993;-67
2022/08/21 11:06:53;;;;;;;;;;;;;;;27.57;33.08;100638.62;4440532;32;19968;-67
2022/08/21 11:09:20;;;;;;;;;;;;;;;27.43;33.40;100653.69;4439320;32;20045;-68
2022/08/21 11:14:34;;;;;;;;;;;;;;;28.98;31.41;100651.41;3978881;31;15717460;-66
2022/08/21 11:17:02;;;;;;;;;;;;;;;28.98;31.41;100651.41;4453785;32;19989;-66
2022/08/21 11:19:47;;;;;;;;;;;;;;;29.43;30.44;100654.63;4455146;32;19982;-66
2022/08/21 11:24:57;;;;;;;;;;;;;;;30.28;29.53;100664.63;3956182;32;15725575;-68
2022/08/21 11:27:42;;;;;;;;;;;;;;;29.28;30.35;100671.94;4430536;32;19966;-69
2022/08/21 11:30:08;;;;;;;;;;;;;;;28.68;31.18;100672.25;4435045;32;20346;-65
2022/08/21 11:32:54;;;;;;;;;;;;;;;28.54;31.40;100667.13;4432319;32;19950;-66
2022/08/21 11:35:39;;;;;;;;;;;;;;;28.18;32.32;100669.84;4433682;32;19957;-70
2022/08/21 11:38:15;;;;;;;;;;;;;;;27.79;33.09;100672.06;4430321;32;20283;-67
2022/08/21 11:41:01;;;;;;;;;;;;;;;27.41;33.67;100660.00;4432892;32;19989;-66
2022/08/21 11:54:13;;;;;;;;;;;;;;;29.81;30.37;100657.69;3955819;32;15727536;-66
2022/08/21 11:56:50;;;;;;;;;;;;;;;29.81;30.37;100657.69;4433857;32;19989;-67
2022/08/21 11:59:22;;;;;;;;;;;;;;;29.67;30.24;100660.00;4433553;32;20339;-64
2022/08/21 12:01:54;;;;;;;;;;;;;;;29.87;29.86;100658.28;4436271;32;20008;-66
2022/08/21 12:07:17;;;;;;;;;;;;;;;30.05;29.64;100665.00;3955300;32;15722606;-70
2022/08/21 12:09:59;;;;;;;;;;;;;;;30.05;29.56;100657.97;4438170;32;20096;-68
2022/08/21 12:12:28;;;;;;;;;;;;;;;29.96;29.48;100666.44;4440131;32;19953;-68
2022/08/21 12:15:13;;;;;;;;;;;;;;;29.88;29.53;100669.31;4439811;32;19988;-69
2022/08/21 12:17:40;;;;;;;;;;;;;;;29.22;30.41;100664.72;4438444;32;19963;-67
2022/08/21 12:23:17;;;;;;;;;;;;;;;29.15;31.41;100672.06;3957198;32;15723606;-70
2022/08/21 12:25:47;;;;;;;;;;;;;;;29.15;31.41;100672.06;4440798;32;19965;-66
2022/08/21 12:28:15;;;;;;;;;;;;;;;28.24;32.15;100664.69;4439653;32;19954;-67
2022/08/21 12:30:43;;;;;;;;;;;;;;;28.14;32.50;100660.72;4440205;32;20009;-66
2022/08/21 12:33:28;;;;;;;;;;;;;;;28.18;32.74;100666.16;4439713;32;19963;-66
2022/08/21 12:36:02;;;;;;;;;;;;;;;28.50;32.19;100658.00;4437380;32;19969;-67
2022/08/21 12:38:29;;;;;;;;;;;;;;;28.78;31.82;100655.16;4439826;32;19957;-70
2022/08/21 12:41:05;;;;;;;;;;;;;;;28.84;31.91;100653.63;4440242;32;20049;-69
2022/08/21 12:43:37;;;;;;;;;;;;;;;28.90;31.81;100662.97;4439450;32;20016;-68
2022/08/21 12:46:04;;;;;;;;;;;;;;;28.82;31.69;100644.75;4438619;32;19997;-66
2022/08/21 12:48:49;;;;;;;;;;;;;;;29.01;31.36;100645.28;4437111;32;20004;-68
2022/08/21 12:51:18;;;;;;;;;;;;;;;29.31;30.91;100661.31;4437742;32;20374;-68
2022/08/21 12:53:47;;;;;;;;;;;;;;;29.29;30.76;100655.31;4439945;32;19999;-69
2022/08/21 12:56:13;;;;;;;;;;;;;;;29.33;30.48;100647.03;4428339;32;20008;-65
2022/08/21 12:58:41;;;;;;;;;;;;;;;29.46;30.58;100652.69;4436998;32;19952;-67
2022/08/21 13:01:12;;;;;;;;;;;;;;;30.00;29.78;100667.63;4439998;32;19976;-65
2022/08/21 13:03:38;;;;;;;;;;;;;;;30.21;29.38;100668.28;4437694;32;19957;-67
2022/08/21 13:06:05;;;;;;;;;;;;;;;30.16;29.58;100672.09;4438493;32;19949;-66
2022/08/21 13:08:33;;;;;;;;;;;;;;;30.14;29.61;100663.22;4437897;32;19949;-70
2022/08/21 13:11:00;;;;;;;;;;;;;;;30.40;29.42;100668.69;4439532;32;19980;-67
2022/08/21 13:13:27;;;;;;;;;;;;;;;29.75;30.13;100677.41;4438787;32;19953;-67
2022/08/21 13:15:57;;;;;;;;;;;;;;;29.41;30.23;100668.13;4440775;32;19950;-67
2022/08/21 13:18:25;;;;;;;;;;;;;;;29.57;30.28;100666.88;4438525;32;20370;-69
2022/08/21 13:20:51;;;;;;;;;;;;;;;29.79;30.01;100658.25;4439467;32;20435;-66
2022/08/21 13:23:25;;;;;;;;;;;;;;;30.22;29.26;100661.13;4440734;32;19976;-65
2022/08/21 13:25:50;;;;;;;;;;;;;;;30.51;28.88;100661.72;4440678;32;20021;-68
2022/08/21 13:28:16;;;;;;;;;;;;;;;31.44;27.51;100669.22;4438421;32;20003;-70
2022/08/21 13:30:43;;;;;;;;;;;;;;;31.72;26.98;100671.06;4438944;32;19993;-67